createdAt,value
2023-05-18T00:02:52.520Z,2.30
2023-05-18T00:07:55.053Z,2.50
2023-05-18T00:12:57.585Z,2.50
2023-05-18T00:18:00.145Z,2.20
2023-05-18T00:23:03.032Z,2.20
2023-05-18T00:28:05.572Z,2.20
2023-05-18T00:33:08.096Z,2.40
2023-05-18T00:38:12.020Z,2.10
2023-05-18T00:43:14.522Z,3.10
2023-05-18T00:48:17.046Z,2.50
2023-05-18T00:53:19.602Z,2.40
2023-05-18T00:58:22.307Z,2.70
2023-05-18T01:03:26.059Z,2.20
2023-05-18T01:08:28.698Z,2.10
2023-05-18T01:13:39.053Z,1.90
2023-05-18T01:18:51.260Z,2.20
2023-05-18T01:24:26.063Z,2.50
2023-05-18T01:29:30.313Z,2.20
2023-05-18T01:34:32.850Z,2.20
2023-05-18T01:39:35.367Z,2.70
2023-05-18T01:44:50.798Z,2.20
2023-05-18T01:50:03.886Z,2.20
2023-05-18T01:55:09.082Z,2.40
2023-05-18T02:00:12.419Z,2.50
2023-05-18T02:05:15.466Z,2.40
2023-05-18T02:10:18.064Z,2.40
2023-05-18T02:15:20.732Z,2.10
2023-05-18T02:20:23.416Z,2.50
2023-05-18T02:25:26.365Z,2.50
2023-05-18T02:30:33.022Z,2.20
2023-05-18T02:35:35.817Z,2.50
2023-05-18T02:40:38.302Z,2.40
2023-05-18T02:45:41.044Z,2.10
2023-05-18T02:50:45.812Z,2.40
2023-05-18T02:55:49.101Z,2.40
2023-05-18T03:00:55.050Z,2.50
2023-05-18T03:05:57.564Z,2.10
2023-05-18T03:11:00.294Z,2.30
2023-05-18T03:16:02.798Z,1.90
2023-05-18T03:21:05.643Z,2.40
2023-05-18T03:26:11.415Z,2.60
2023-05-18T03:31:13.999Z,2.00
2023-05-18T03:36:16.610Z,2.30
2023-05-18T03:41:19.279Z,2.20
2023-05-18T03:46:21.803Z,2.20
2023-05-18T03:51:24.464Z,2.20
2023-05-18T03:56:27.491Z,2.40
2023-05-18T04:01:32.532Z,2.50
2023-05-18T04:06:37.696Z,2.20
2023-05-18T04:11:41.172Z,2.20
2023-05-18T04:16:43.749Z,1.80
2023-05-18T04:21:47.293Z,1.60
2023-05-18T04:26:49.863Z,2.10
2023-05-18T04:31:53.600Z,1.80
2023-05-18T04:36:58.638Z,1.80
2023-05-18T04:42:01.543Z,1.80
2023-05-18T04:47:04.361Z,1.90
2023-05-18T04:52:10.156Z,1.90
2023-05-18T04:57:13.360Z,2.20
2023-05-18T05:02:16.024Z,1.90
2023-05-18T05:07:19.573Z,2.60
2023-05-18T05:12:22.111Z,2.00
2023-05-18T05:17:24.843Z,1.80
2023-05-18T05:22:27.597Z,1.60
2023-05-18T05:27:30.107Z,1.40
2023-05-18T05:32:32.700Z,1.70
2023-05-18T05:37:35.635Z,1.50
2023-05-18T05:42:38.158Z,1.40
2023-05-18T05:47:40.702Z,1.40
2023-05-18T05:52:43.268Z,1.30
2023-05-18T05:57:45.878Z,1.30
2023-05-18T06:02:48.802Z,1.40
2023-05-18T06:07:51.347Z,1.60
2023-05-18T06:12:53.887Z,1.40
2023-05-18T06:17:56.385Z,2.00
2023-05-18T06:23:01.347Z,1.30
2023-05-18T06:28:06.775Z,1.90
2023-05-18T06:33:12.413Z,2.00
2023-05-18T06:38:14.974Z,1.30
2023-05-18T06:43:17.521Z,1.60
2023-05-18T06:48:20.086Z,1.90
2023-05-18T06:53:23.217Z,1.50
2023-05-18T06:58:25.836Z,1.30
2023-05-18T07:03:29.742Z,1.20
2023-05-18T07:08:32.843Z,1.70
2023-05-18T07:13:35.426Z,1.40
2023-05-18T07:18:38.442Z,1.30
2023-05-18T07:23:42.315Z,1.20
2023-05-18T07:28:45.016Z,1.10
2023-05-18T07:33:51.939Z,1.10
2023-05-18T07:38:54.800Z,1.10
2023-05-18T07:43:57.584Z,1.00
2023-05-18T07:49:00.608Z,1.40
2023-05-18T07:54:03.485Z,1.00
2023-05-18T07:59:06.985Z,1.10
2023-05-18T08:04:09.630Z,1.10
2023-05-18T08:09:12.447Z,1.00
2023-05-18T08:14:15.003Z,1.00
2023-05-18T08:19:17.838Z,1.00
2023-05-18T08:24:20.745Z,1.00
2023-05-18T08:29:23.506Z,1.30
2023-05-18T08:34:26.452Z,0.90
2023-05-18T08:39:31.688Z,1.00
2023-05-18T08:44:40.087Z,0.90
2023-05-18T08:49:43.059Z,1.00
2023-05-18T08:54:46.904Z,1.10
2023-05-18T08:59:52.930Z,0.80
2023-05-18T09:04:57.154Z,1.00
2023-05-18T09:10:01.218Z,0.70
2023-05-18T09:15:05.080Z,0.90
2023-05-18T09:20:08.338Z,1.10
2023-05-18T09:25:11.220Z,0.80
2023-05-18T09:30:14.017Z,0.80
2023-05-18T09:35:17.109Z,1.10
2023-05-18T09:40:28.187Z,0.90
2023-05-18T09:45:30.921Z,0.90
2023-05-18T09:50:34.664Z,1.10
2023-05-18T09:55:48.280Z,1.10
2023-05-18T10:00:51.999Z,0.90
2023-05-18T10:05:54.748Z,1.10
2023-05-18T10:10:57.296Z,1.20
2023-05-18T10:16:02.497Z,1.00
2023-05-18T10:21:09.396Z,1.30
2023-05-18T10:26:13.891Z,1.30
2023-05-18T10:31:17.077Z,1.00
2023-05-18T10:36:21.638Z,1.10
2023-05-18T10:41:25.879Z,1.00
2023-05-18T10:46:28.626Z,1.00
2023-05-18T10:51:32.292Z,1.00
2023-05-18T10:56:37.509Z,0.90
2023-05-18T11:01:43.976Z,1.00
2023-05-18T11:06:54.839Z,1.20
2023-05-18T11:11:59.069Z,1.10
2023-05-18T11:17:21.056Z,1.40
2023-05-18T11:22:23.574Z,0.70
2023-05-18T11:27:26.129Z,1.10
2023-05-18T11:32:32.933Z,0.80
2023-05-18T11:37:38.373Z,0.70
2023-05-18T11:42:42.243Z,0.90
2023-05-18T11:47:47.144Z,0.90
2023-05-18T11:52:53.077Z,0.90
2023-05-18T11:57:56.051Z,1.00
2023-05-18T12:03:01.196Z,0.90
2023-05-18T12:08:04.725Z,1.00
2023-05-18T12:13:07.928Z,1.10
2023-05-18T12:18:11.066Z,1.00
2023-05-18T12:23:13.772Z,1.30
2023-05-18T12:28:17.067Z,1.00
2023-05-18T12:33:20.977Z,1.00
2023-05-18T12:38:26.181Z,1.00
2023-05-18T12:43:36.269Z,1.00
2023-05-18T12:48:46.750Z,1.30
2023-05-18T12:58:59.511Z,1.30
2023-05-18T13:04:02.295Z,1.10
2023-05-18T13:09:12.376Z,1.10
2023-05-18T13:14:19.881Z,0.80
2023-05-18T13:19:23.622Z,0.90
2023-05-18T13:24:26.180Z,1.10
2023-05-18T13:29:28.756Z,1.90
2023-05-18T13:34:31.654Z,1.40
2023-05-18T13:39:34.236Z,1.40
2023-05-18T13:44:36.756Z,1.30
2023-05-18T13:49:39.253Z,2.30
2023-05-18T13:54:42.873Z,1.40
2023-05-18T13:59:46.787Z,0.90
2023-05-18T14:04:49.498Z,1.00
2023-05-18T14:09:52.039Z,1.40
2023-05-18T14:14:54.844Z,2.50
2023-05-18T14:19:57.848Z,1.50
2023-05-18T14:25:01.003Z,2.20
2023-05-18T14:30:06.052Z,1.00
2023-05-18T14:35:08.781Z,1.30
2023-05-18T14:40:11.739Z,1.20
2023-05-18T14:45:14.425Z,1.10
2023-05-18T14:50:16.985Z,1.20
2023-05-18T14:55:19.470Z,1.20
2023-05-18T15:00:22.164Z,1.20
2023-05-18T15:05:24.686Z,1.30
2023-05-18T15:10:27.392Z,1.90
2023-05-18T15:15:30.088Z,2.10
2023-05-18T15:20:32.979Z,1.90
2023-05-18T15:25:36.962Z,1.50
2023-05-18T15:30:39.601Z,1.60
2023-05-18T15:35:42.160Z,1.80
2023-05-18T15:40:47.722Z,1.70
2023-05-18T15:45:50.621Z,1.80
2023-05-18T15:50:53.478Z,1.70
2023-05-18T15:55:59.114Z,1.90
2023-05-18T16:01:02.252Z,1.80
2023-05-18T16:06:05.433Z,1.80
2023-05-18T16:11:08.053Z,2.10
2023-05-18T16:16:13.862Z,1.80
2023-05-18T16:21:17.086Z,1.80
2023-05-18T16:26:19.676Z,1.40
2023-05-18T16:31:22.224Z,1.80
2023-05-18T16:36:26.041Z,1.50
2023-05-18T16:41:28.714Z,1.60
2023-05-18T16:46:31.324Z,1.50
2023-05-18T16:51:34.002Z,1.70
2023-05-18T16:56:36.536Z,1.80
2023-05-18T17:01:39.170Z,1.80
2023-05-18T17:06:42.077Z,1.80
2023-05-18T17:11:44.690Z,2.00
2023-05-18T17:16:47.223Z,1.70
2023-05-18T17:21:49.944Z,1.60
2023-05-18T17:26:52.510Z,1.40
2023-05-18T17:31:56.198Z,1.40
2023-05-18T17:36:58.971Z,1.60
2023-05-18T17:42:01.876Z,1.70
2023-05-18T17:47:04.702Z,1.60
2023-05-18T17:52:07.365Z,2.00
2023-05-18T17:57:09.895Z,1.90
2023-05-18T18:02:14.040Z,1.80
2023-05-18T18:07:16.643Z,1.90
2023-05-18T18:12:19.229Z,1.90
2023-05-18T18:17:22.998Z,2.00
2023-05-18T18:22:25.650Z,1.90
2023-05-18T18:27:28.142Z,1.90
2023-05-18T18:32:30.845Z,2.10
2023-05-18T18:37:33.449Z,2.30
2023-05-18T18:42:36.736Z,2.20
2023-05-18T18:47:39.423Z,2.40
2023-05-18T18:52:42.172Z,2.40
2023-05-18T18:57:45.580Z,2.10
2023-05-18T19:02:48.939Z,1.70
2023-05-18T19:07:55.033Z,1.40
2023-05-18T19:12:59.810Z,1.80
2023-05-18T19:18:03.153Z,1.70
2023-05-18T19:23:07.193Z,1.70
2023-05-18T19:28:09.785Z,1.80
2023-05-18T19:33:12.349Z,1.50
2023-05-18T19:38:15.613Z,1.60
2023-05-18T19:43:18.234Z,1.50
2023-05-18T19:48:20.728Z,1.50
2023-05-18T19:53:23.282Z,1.40
2023-05-18T19:58:27.406Z,1.20
2023-05-18T20:03:30.569Z,1.30
2023-05-18T20:08:33.623Z,1.60
2023-05-18T20:13:36.908Z,1.20
2023-05-18T20:18:40.121Z,1.30
2023-05-18T20:23:42.720Z,1.60
2023-05-18T20:28:45.225Z,1.40
2023-05-18T20:33:47.726Z,1.60
2023-05-18T20:38:50.275Z,1.40
2023-05-18T20:43:53.117Z,1.60
2023-05-18T20:48:55.636Z,1.30
2023-05-18T20:53:58.806Z,1.60
2023-05-18T20:59:02.011Z,1.30
2023-05-18T21:04:06.272Z,1.40
2023-05-18T21:09:08.880Z,1.60
2023-05-18T21:14:11.429Z,1.70
2023-05-18T21:19:14.062Z,1.60
2023-05-18T21:24:16.755Z,1.60
2023-05-18T21:29:19.331Z,1.70
2023-05-18T21:34:22.475Z,1.80
2023-05-18T21:39:25.499Z,1.60
2023-05-18T21:44:28.093Z,1.70
2023-05-18T21:49:30.657Z,1.70
2023-05-18T21:54:35.223Z,1.70
2023-05-18T21:59:38.829Z,2.30
2023-05-18T22:04:41.415Z,1.70
2023-05-18T22:09:44.196Z,1.80
2023-05-18T22:14:46.690Z,1.80
2023-05-18T22:19:53.135Z,1.60
2023-05-18T22:24:55.981Z,1.80
2023-05-18T22:29:58.484Z,2.00
2023-05-18T22:35:01.925Z,1.70
2023-05-18T22:40:06.403Z,2.00
2023-05-18T22:45:11.085Z,1.60
2023-05-18T22:50:14.836Z,1.90
2023-05-18T22:55:18.357Z,2.10
2023-05-18T23:00:20.921Z,2.00
2023-05-18T23:05:23.757Z,2.10
2023-05-18T23:10:26.412Z,1.80
2023-05-18T23:15:29.308Z,2.00
2023-05-18T23:20:34.347Z,2.20
2023-05-18T23:25:36.838Z,2.00
2023-05-18T23:30:39.539Z,2.00
2023-05-18T23:35:45.232Z,1.90
2023-05-18T23:40:49.431Z,2.00
2023-05-18T23:45:54.093Z,1.90
2023-05-18T23:51:01.272Z,1.80
2023-05-18T23:56:05.464Z,1.90
